createdAt,value
2023-02-19T00:00:52.624Z,98.1
2023-02-19T00:01:56.691Z,98
2023-02-19T00:03:00.404Z,98.1
2023-02-19T00:04:03.497Z,98.1
2023-02-19T00:05:06.701Z,98.2
2023-02-19T00:06:09.831Z,98.2
2023-02-19T00:07:13.659Z,98.3
2023-02-19T00:08:17.876Z,98.3
2023-02-19T00:09:21.179Z,98.3
2023-02-19T00:10:26.360Z,98.3
2023-02-19T00:11:30.863Z,98.2
2023-02-19T00:12:34.212Z,98.1
2023-02-19T00:13:38.172Z,98.1
2023-02-19T00:14:55.558Z,98.1
2023-02-19T00:15:57.810Z,97.9
2023-02-19T00:17:01.067Z,97.8
2023-02-19T00:18:04.164Z,97.8
2023-02-19T00:19:07.333Z,97.7
2023-02-19T00:20:11.053Z,97.6
2023-02-19T00:21:14.891Z,97.6
2023-02-19T00:22:18.819Z,97.6
2023-02-19T00:23:22.768Z,97.7
2023-02-19T00:24:26.191Z,97.7
2023-02-19T00:25:29.948Z,97.8
2023-02-19T00:26:32.414Z,97.8
2023-02-19T00:27:35.417Z,97.8
2023-02-19T00:28:38.292Z,97.8
2023-02-19T00:29:42.306Z,97.9
2023-02-19T00:30:45.351Z,97.9
2023-02-19T00:31:49.887Z,97.8
2023-02-19T00:32:53.253Z,97.8
2023-02-19T00:33:56.588Z,97.8
2023-02-19T00:35:00.914Z,97.7
2023-02-19T00:36:04.683Z,97.6
2023-02-19T00:37:08.559Z,97.6
2023-02-19T00:38:11.542Z,97.5
2023-02-19T00:39:15.034Z,97.4
2023-02-19T00:40:17.229Z,97.3
2023-02-19T00:41:20.408Z,97.3
2023-02-19T00:42:24.782Z,97.4
2023-02-19T00:43:27.276Z,97.4
2023-02-19T00:44:30.325Z,97.4
2023-02-19T00:45:34.404Z,97.4
2023-02-19T00:46:38.218Z,97.4
2023-02-19T00:47:42.928Z,97.4
2023-02-19T00:48:45.716Z,97.5
2023-02-19T00:49:48.959Z,97.4
2023-02-19T00:50:51.676Z,97.4
2023-02-19T00:51:54.404Z,97.4
2023-02-19T00:52:57.516Z,97.4
2023-02-19T00:54:01.263Z,97.3
2023-02-19T00:55:05.193Z,97.3
2023-02-19T00:56:08.423Z,97.3
2023-02-19T00:57:12.115Z,97.4
2023-02-19T00:58:14.947Z,97.4
2023-02-19T00:59:17.937Z,97.5
2023-02-19T01:00:21.576Z,97.5
2023-02-19T01:01:24.519Z,97.5
2023-02-19T01:02:28.124Z,97.6
2023-02-19T01:03:31.337Z,97.6
2023-02-19T01:04:34.358Z,97.7
2023-02-19T01:05:37.588Z,97.7
2023-02-19T01:06:40.679Z,97.6
2023-02-19T01:07:43.967Z,97.6
2023-02-19T01:08:47.200Z,97.6
2023-02-19T01:09:50.614Z,97.7
2023-02-19T01:10:54.269Z,97.7
2023-02-19T01:11:56.987Z,97.8
2023-02-19T01:12:59.696Z,97.9
2023-02-19T01:14:02.747Z,98
2023-02-19T01:15:06.077Z,97.8
2023-02-19T01:16:09.563Z,97.8
2023-02-19T01:17:13.038Z,97.8
2023-02-19T01:18:16.484Z,97.8
2023-02-19T01:19:19.190Z,97.9
2023-02-19T01:20:21.465Z,97.9
2023-02-19T01:21:24.434Z,97.9
2023-02-19T01:22:27.856Z,97.9
2023-02-19T01:23:31.022Z,98
2023-02-19T01:24:34.750Z,98
2023-02-19T01:25:38.458Z,98
2023-02-19T01:26:42.245Z,97.9
2023-02-19T01:27:45.374Z,97.8
2023-02-19T01:28:48.475Z,97.8
2023-02-19T01:29:52.174Z,97.8
2023-02-19T01:30:55.883Z,97.8
2023-02-19T01:31:59.505Z,97.8
2023-02-19T01:33:02.916Z,97.8
2023-02-19T01:34:05.979Z,97.8
2023-02-19T01:35:09.384Z,97.8
2023-02-19T01:36:11.874Z,97.8
2023-02-19T01:37:14.660Z,97.9
2023-02-19T01:38:17.716Z,97.9
2023-02-19T01:39:21.074Z,98
2023-02-19T01:40:24.831Z,98
2023-02-19T01:41:27.958Z,98.2
2023-02-19T01:42:31.787Z,98.2
2023-02-19T01:43:35.318Z,98.3
2023-02-19T01:44:38.183Z,98.4
2023-02-19T01:45:40.352Z,98.4
2023-02-19T01:46:43.789Z,98.4
2023-02-19T01:47:46.711Z,98.4
2023-02-19T01:48:49.149Z,98.4
2023-02-19T01:49:52.218Z,98.4
2023-02-19T01:50:55.194Z,98.1
2023-02-19T01:51:58.464Z,98
2023-02-19T01:53:01.818Z,98
2023-02-19T01:54:04.972Z,98
2023-02-19T01:55:08.049Z,98.1
2023-02-19T01:56:11.198Z,98.1
2023-02-19T01:57:14.671Z,98.1
2023-02-19T01:58:18.778Z,98.2
2023-02-19T01:59:22.116Z,98.2
2023-02-19T02:00:25.449Z,98.3
2023-02-19T02:01:28.554Z,98.1
2023-02-19T02:02:31.816Z,98.4
2023-02-19T02:03:34.910Z,98.5
2023-02-19T02:04:38.258Z,98.7
2023-02-19T02:05:41.639Z,98.8
2023-02-19T02:06:45.071Z,98.7
2023-02-19T02:07:48.351Z,98.7
2023-02-19T02:08:51.107Z,98.5
2023-02-19T02:09:53.274Z,98.4
2023-02-19T02:10:55.439Z,98.3
2023-02-19T02:11:58.816Z,98.5
2023-02-19T02:13:02.577Z,98.3
2023-02-19T02:14:06.166Z,98.3
2023-02-19T02:15:09.421Z,98.4
2023-02-19T02:16:12.081Z,98.5
2023-02-19T02:17:15.205Z,98.6
2023-02-19T02:18:18.006Z,98.8
2023-02-19T02:19:20.802Z,98.9
2023-02-19T02:20:24.146Z,98.9
2023-02-19T02:21:27.593Z,98.9
2023-02-19T02:22:31.080Z,98.6
2023-02-19T02:23:33.794Z,97.4
2023-02-19T02:24:36.885Z,97.2
2023-02-19T02:25:39.938Z,97.4
2023-02-19T02:26:42.925Z,97.3
2023-02-19T02:27:45.679Z,97.4
2023-02-19T02:28:48.349Z,97.3
2023-02-19T02:29:52.150Z,97.4
2023-02-19T02:30:55.994Z,97.3
2023-02-19T02:31:59.978Z,97.3
2023-02-19T02:33:03.663Z,97.2
2023-02-19T02:34:06.521Z,97
2023-02-19T02:35:09.251Z,97
2023-02-19T02:36:11.971Z,96.8
2023-02-19T02:37:15.160Z,96.4
2023-02-19T02:38:17.685Z,96.4
2023-02-19T02:39:20.837Z,96.6
2023-02-19T02:40:23.863Z,96.5
2023-02-19T02:41:27.047Z,96.1
2023-02-19T02:42:30.451Z,95.5
2023-02-19T02:43:33.197Z,95.6
2023-02-19T02:44:36.769Z,95.9
2023-02-19T02:45:40.217Z,95.6
2023-02-19T02:46:42.986Z,95.6
2023-02-19T02:47:46.674Z,95.8
2023-02-19T02:48:49.099Z,95.9
2023-02-19T02:49:51.242Z,95.9
2023-02-19T02:50:53.940Z,95.8
2023-02-19T02:51:56.446Z,95.7
2023-02-19T02:52:59.796Z,95.6
2023-02-19T02:54:03.196Z,95.6
2023-02-19T02:55:06.523Z,95.7
2023-02-19T02:56:09.888Z,95.7
2023-02-19T02:57:12.982Z,95.7
2023-02-19T02:58:16.149Z,95.8
2023-02-19T02:59:19.016Z,95.9
2023-02-19T03:00:22.153Z,95.6
2023-02-19T03:01:26.085Z,95.5
2023-02-19T03:02:30.283Z,95.5
2023-02-19T03:03:33.231Z,95.5
2023-02-19T03:04:36.290Z,95.2
2023-02-19T03:05:39.611Z,95.1
2023-02-19T03:06:42.121Z,95
2023-02-19T03:07:45.466Z,95.2
2023-02-19T03:08:48.463Z,95.2
2023-02-19T03:09:51.456Z,95
2023-02-19T03:10:54.812Z,94.9
2023-02-19T03:11:57.594Z,94.8
2023-02-19T03:13:00.971Z,94.9
2023-02-19T03:14:04.610Z,94.9
2023-02-19T03:15:07.676Z,95
2023-02-19T03:16:10.924Z,95
2023-02-19T03:17:13.978Z,95.2
2023-02-19T03:18:17.333Z,95.2
2023-02-19T03:19:20.545Z,95.5
2023-02-19T03:20:24.089Z,95.5
2023-02-19T03:21:27.484Z,95.4
2023-02-19T03:22:31.199Z,95.4
2023-02-19T03:23:34.832Z,95
2023-02-19T03:24:37.343Z,95.1
2023-02-19T03:25:40.335Z,95
2023-02-19T03:26:43.777Z,94.8
2023-02-19T03:27:46.280Z,94.7
2023-02-19T03:28:49.252Z,94.7
2023-02-19T03:29:51.689Z,94.7
2023-02-19T03:30:54.783Z,94.8
2023-02-19T03:31:58.991Z,94.8
2023-02-19T03:33:02.012Z,94.8
2023-02-19T03:34:05.127Z,94.8
2023-02-19T03:35:08.849Z,94.8
2023-02-19T03:36:12.230Z,94.8
2023-02-19T03:37:14.674Z,94.9
2023-02-19T03:38:17.770Z,94.8
2023-02-19T03:39:20.857Z,94.7
2023-02-19T03:40:23.911Z,94.8
2023-02-19T03:41:26.914Z,94.7
2023-02-19T03:42:30.334Z,94.5
2023-02-19T03:43:32.771Z,94.5
2023-02-19T03:44:37.864Z,94.7
2023-02-19T03:45:40.986Z,94.7
2023-02-19T03:46:44.047Z,94.6
2023-02-19T03:47:46.778Z,94.6
2023-02-19T03:48:50.180Z,94.5
2023-02-19T03:49:53.612Z,94.7
2023-02-19T03:50:56.393Z,94.9
2023-02-19T03:51:59.356Z,95
2023-02-19T03:53:02.427Z,95.3
2023-02-19T03:54:05.525Z,95.3
2023-02-19T03:55:08.323Z,95.3
2023-02-19T03:56:11.723Z,95.2
2023-02-19T03:57:13.882Z,95.1
2023-02-19T03:58:16.862Z,95.1
2023-02-19T03:59:19.918Z,94.9
2023-02-19T04:00:23.004Z,94.8
2023-02-19T04:01:26.103Z,94.7
2023-02-19T04:02:29.573Z,94.6
2023-02-19T04:03:33.147Z,94.6
2023-02-19T04:04:36.477Z,94.6
2023-02-19T04:05:40.034Z,94.6
2023-02-19T04:06:42.834Z,94.7
2023-02-19T04:07:45.645Z,94.9
2023-02-19T04:08:49.373Z,95
2023-02-19T04:09:52.154Z,95.2
2023-02-19T04:10:54.850Z,95.1
2023-02-19T04:11:58.566Z,95.1
2023-02-19T04:13:01.648Z,95.3
2023-02-19T04:14:04.745Z,95.3
2023-02-19T04:15:08.184Z,95.4
2023-02-19T04:16:11.817Z,95.5
2023-02-19T04:17:14.983Z,95.5
2023-02-19T04:18:18.037Z,95.4
2023-02-19T04:19:22.027Z,95.5
2023-02-19T04:20:25.075Z,95.4
2023-02-19T04:21:28.164Z,95.4
2023-02-19T04:22:31.897Z,95.4
2023-02-19T04:23:34.945Z,95.3
2023-02-19T04:24:38.022Z,95.2
2023-02-19T04:25:41.414Z,95.3
2023-02-19T04:26:45.061Z,95.4
2023-02-19T04:27:47.823Z,95.5
2023-02-19T04:28:50.892Z,95.5
2023-02-19T04:29:53.969Z,95.5
2023-02-19T04:30:56.948Z,95.6
2023-02-19T04:32:00.076Z,95.6
2023-02-19T04:33:03.422Z,95.6
2023-02-19T04:34:06.136Z,95.6
2023-02-19T04:35:09.527Z,95.6
2023-02-19T04:36:12.049Z,95.7
2023-02-19T04:37:15.146Z,95.7
2023-02-19T04:38:18.581Z,95.7
2023-02-19T04:39:21.632Z,95.7
2023-02-19T04:40:24.748Z,95.7
2023-02-19T04:41:27.564Z,95.7
2023-02-19T04:42:30.079Z,96.1
2023-02-19T04:43:33.596Z,96.1
2023-02-19T04:44:36.930Z,96.1
2023-02-19T04:45:39.233Z,96.3
2023-02-19T04:46:44.057Z,96.4
2023-02-19T04:47:46.923Z,96.4
2023-02-19T04:48:50.362Z,96.5
2023-02-19T04:49:54.072Z,96.4
2023-02-19T04:50:56.779Z,96.4
2023-02-19T04:51:59.772Z,96.5
2023-02-19T04:53:02.952Z,96.4
2023-02-19T04:54:06.239Z,96.4
2023-02-19T04:55:09.114Z,96.3
2023-02-19T04:56:11.820Z,96.3
2023-02-19T04:57:14.633Z,96.3
2023-02-19T04:58:17.605Z,96.4
2023-02-19T04:59:20.359Z,96.4
2023-02-19T05:00:23.463Z,96.5
2023-02-19T05:01:26.684Z,96.6
2023-02-19T05:02:30.489Z,96.6
2023-02-19T05:03:33.298Z,96.6
2023-02-19T05:04:36.865Z,96.6
2023-02-19T05:05:40.144Z,96.6
2023-02-19T05:06:43.402Z,96.5
2023-02-19T05:07:46.573Z,96.5
2023-02-19T05:08:49.554Z,96.5
2023-02-19T05:09:53.407Z,96.6
2023-02-19T05:10:56.762Z,96.6
2023-02-19T05:12:00.156Z,96.6
2023-02-19T05:13:03.311Z,96.5
2023-02-19T05:14:06.035Z,96.5
2023-02-19T05:15:09.103Z,96.6
2023-02-19T05:16:12.670Z,96.6
2023-02-19T05:17:16.354Z,96.7
2023-02-19T05:18:19.141Z,96.8
2023-02-19T05:19:22.150Z,96.8
2023-02-19T05:20:25.597Z,96.8
2023-02-19T05:21:29.215Z,96.9
2023-02-19T05:22:32.954Z,96.9
2023-02-19T05:23:36.290Z,96.9
2023-02-19T05:24:39.274Z,96.9
2023-02-19T05:25:42.398Z,97
2023-02-19T05:26:46.687Z,97.1
2023-02-19T05:27:50.168Z,97.1
2023-02-19T05:28:52.888Z,97.2
2023-02-19T05:29:56.301Z,97.4
2023-02-19T05:30:59.730Z,97.6
2023-02-19T05:32:03.700Z,97.7
2023-02-19T05:33:07.300Z,97.7
2023-02-19T05:34:10.003Z,97.6
2023-02-19T05:35:13.340Z,97.5
2023-02-19T05:36:16.305Z,97.5
2023-02-19T05:37:19.075Z,97.6
2023-02-19T05:38:21.962Z,97.6
2023-02-19T05:39:25.340Z,97.6
2023-02-19T05:40:28.394Z,97.7
2023-02-19T05:41:31.381Z,97.8
2023-02-19T05:42:34.789Z,97.8
2023-02-19T05:43:37.890Z,97.7
2023-02-19T05:44:40.652Z,97.6
2023-02-19T05:45:44.389Z,97.6
2023-02-19T05:46:47.206Z,97.7
2023-02-19T05:47:50.071Z,97.9
2023-02-19T05:48:53.497Z,97.9
2023-02-19T05:49:57.225Z,97.9
2023-02-19T05:51:00.304Z,97.8
2023-02-19T05:52:03.197Z,97.8
2023-02-19T05:53:05.702Z,97.9
2023-02-19T05:54:08.508Z,98
2023-02-19T05:55:11.778Z,97.9
2023-02-19T05:56:15.110Z,97.9
2023-02-19T05:57:17.525Z,97.8
2023-02-19T05:58:20.932Z,97.9
2023-02-19T05:59:24.012Z,97.8
2023-02-19T06:00:26.589Z,97.8
2023-02-19T06:01:29.380Z,97.7
2023-02-19T06:02:32.194Z,97.7
2023-02-19T06:03:35.538Z,97.7
2023-02-19T06:04:38.461Z,97.6
2023-02-19T06:05:42.492Z,97.7
2023-02-19T06:06:45.213Z,97.6
2023-02-19T06:07:47.908Z,97.6
2023-02-19T06:08:50.958Z,97.6
2023-02-19T06:09:54.407Z,97.6
2023-02-19T06:10:57.563Z,97.6
2023-02-19T06:12:00.269Z,97.6
2023-02-19T06:13:03.735Z,97.7
2023-02-19T06:14:06.825Z,97.8
2023-02-19T06:15:09.830Z,97.9
2023-02-19T06:16:12.795Z,97.8
2023-02-19T06:17:16.457Z,97.8
2023-02-19T06:18:19.923Z,97.7
2023-02-19T06:19:23.175Z,97.7
2023-02-19T06:20:27.761Z,97.7
2023-02-19T06:21:30.176Z,97.7
2023-02-19T06:22:33.541Z,97.8
2023-02-19T06:23:37.070Z,98.1
2023-02-19T06:24:40.365Z,98
2023-02-19T06:25:43.732Z,98.1
2023-02-19T06:26:46.723Z,98.1
2023-02-19T06:27:49.506Z,97.9
2023-02-19T06:28:52.319Z,97.9
2023-02-19T06:29:55.650Z,97.8
2023-02-19T06:30:58.806Z,97.6
2023-02-19T06:32:02.549Z,97.5
2023-02-19T06:33:05.242Z,97.4
2023-02-19T06:34:08.599Z,97.3
2023-02-19T06:35:11.770Z,97.5
2023-02-19T06:36:14.892Z,97.5
2023-02-19T06:37:18.345Z,97.3
2023-02-19T06:38:21.484Z,97.4
2023-02-19T06:39:24.197Z,97.5
2023-02-19T06:40:27.266Z,97.5
2023-02-19T06:41:30.442Z,97.7
2023-02-19T06:42:34.201Z,97.9
2023-02-19T06:43:37.420Z,98
2023-02-19T06:44:41.191Z,98.1
2023-02-19T06:45:44.194Z,98.3
2023-02-19T06:46:47.433Z,98.4
2023-02-19T06:47:50.626Z,98.4
2023-02-19T06:48:53.965Z,98.5
2023-02-19T06:49:56.939Z,98.5
2023-02-19T06:50:59.402Z,98.5
2023-02-19T06:52:02.820Z,98.5
2023-02-19T06:53:05.882Z,98.5
2023-02-19T06:54:09.008Z,98.6
2023-02-19T06:55:11.605Z,98.6
2023-02-19T06:56:15.329Z,98.9
2023-02-19T06:57:18.150Z,98.9
2023-02-19T06:58:22.207Z,99
2023-02-19T06:59:25.293Z,99
2023-02-19T07:00:28.363Z,99
2023-02-19T07:01:31.340Z,98.9
2023-02-19T07:02:34.965Z,98.8
2023-02-19T07:03:38.091Z,98.8
2023-02-19T07:04:41.728Z,98.8
2023-02-19T07:05:45.161Z,98.8
2023-02-19T07:06:48.154Z,98.8
2023-02-19T07:07:50.386Z,98.7
2023-02-19T07:08:54.034Z,98.6
2023-02-19T07:09:57.033Z,98.5
2023-02-19T07:10:59.817Z,98.4
2023-02-19T07:12:02.727Z,98.3
2023-02-19T07:13:05.516Z,98.3
2023-02-19T07:14:08.266Z,98.2
2023-02-19T07:15:11.379Z,98.1
2023-02-19T07:16:14.545Z,98.1
2023-02-19T07:17:18.124Z,98.1
2023-02-19T07:18:20.897Z,98.1
2023-02-19T07:19:24.523Z,98.1
2023-02-19T07:20:28.256Z,98
2023-02-19T07:21:31.651Z,98.1
2023-02-19T07:22:35.344Z,98
2023-02-19T07:23:38.487Z,98
2023-02-19T07:24:40.684Z,98
2023-02-19T07:25:43.748Z,98.1
2023-02-19T07:26:46.736Z,98
2023-02-19T07:27:50.439Z,98.1
2023-02-19T07:28:52.692Z,98.1
2023-02-19T07:29:56.380Z,98.1
2023-02-19T07:30:59.715Z,98
2023-02-19T07:32:02.485Z,98.1
2023-02-19T07:33:05.069Z,98
2023-02-19T07:34:08.396Z,97.8
2023-02-19T07:35:11.732Z,97.9
2023-02-19T07:36:14.483Z,97.9
2023-02-19T07:37:17.545Z,97.9
2023-02-19T07:38:20.455Z,97.9
2023-02-19T07:39:22.916Z,98
2023-02-19T07:40:25.694Z,97.9
2023-02-19T07:41:28.874Z,97.8
2023-02-19T07:42:32.414Z,97.7
2023-02-19T07:43:35.537Z,97.7
2023-02-19T07:44:38.642Z,97.7
2023-02-19T07:45:41.943Z,97.7
2023-02-19T07:46:45.696Z,97.6
2023-02-19T07:47:48.781Z,97.8
2023-02-19T07:48:52.009Z,97.5
2023-02-19T07:49:54.811Z,97.5
2023-02-19T07:50:57.883Z,97.2
2023-02-19T07:52:00.940Z,97.1
2023-02-19T07:53:03.721Z,97
2023-02-19T07:54:06.228Z,96.8
2023-02-19T07:55:09.257Z,96.9
2023-02-19T07:56:12.034Z,96.6
2023-02-19T07:57:15.344Z,96.5
2023-02-19T07:58:18.484Z,96.3
2023-02-19T07:59:21.563Z,96.2
2023-02-19T08:00:24.967Z,96.2
2023-02-19T08:01:28.243Z,95.9
2023-02-19T08:02:31.982Z,95.7
2023-02-19T08:03:34.687Z,95.6
2023-02-19T08:04:38.190Z,95.5
2023-02-19T08:05:41.281Z,95.3
2023-02-19T08:06:44.125Z,95
2023-02-19T08:07:47.036Z,94.8
2023-02-19T08:08:50.392Z,94.6
2023-02-19T08:09:53.183Z,94.5
2023-02-19T08:10:55.678Z,94.2
2023-02-19T08:11:59.047Z,93.8
2023-02-19T08:13:02.142Z,93.4
2023-02-19T08:14:05.216Z,93.4
2023-02-19T08:15:08.570Z,93.4
2023-02-19T08:16:43.623Z,93.1
2023-02-19T08:17:47.425Z,93.1
2023-02-19T08:18:51.092Z,93.1
2023-02-19T08:19:54.088Z,92.4
2023-02-19T08:20:57.149Z,92
2023-02-19T08:22:00.129Z,92.4
2023-02-19T08:23:03.546Z,92.2
2023-02-19T08:24:06.921Z,92.5
2023-02-19T08:25:10.463Z,92.3
2023-02-19T08:26:13.833Z,91.7
2023-02-19T08:27:17.167Z,91.7
2023-02-19T08:28:20.503Z,91.4
2023-02-19T08:29:23.573Z,91
2023-02-19T08:30:27.307Z,90.8
2023-02-19T08:31:31.299Z,90.9
2023-02-19T08:32:34.223Z,91.2
2023-02-19T08:33:37.294Z,91.3
2023-02-19T08:34:40.626Z,91.4
2023-02-19T08:35:43.206Z,91.4
2023-02-19T08:36:47.209Z,91.1
2023-02-19T08:37:49.971Z,90.9
2023-02-19T08:38:53.145Z,90.6
2023-02-19T08:39:56.317Z,89.8
2023-02-19T08:41:00.150Z,89.9
2023-02-19T08:42:03.232Z,88.6
2023-02-19T08:43:05.840Z,88.8
2023-02-19T08:44:09.558Z,88.7
2023-02-19T08:45:12.904Z,88.6
2023-02-19T08:46:15.963Z,88.4
2023-02-19T08:47:19.131Z,88.3
2023-02-19T08:48:22.241Z,88.2
2023-02-19T08:49:25.297Z,87.6
2023-02-19T08:50:28.632Z,86.4
2023-02-19T08:51:31.768Z,85.7
2023-02-19T08:52:35.032Z,85.6
2023-02-19T08:53:37.393Z,85
2023-02-19T08:54:40.769Z,85.4
2023-02-19T08:55:43.801Z,85.1
2023-02-19T08:56:46.782Z,84.6
2023-02-19T08:57:52.039Z,83.1
2023-02-19T08:58:55.377Z,83.5
2023-02-19T08:59:59.018Z,82.9
2023-02-19T09:01:02.719Z,81.2
2023-02-19T09:02:06.203Z,80.9
2023-02-19T09:03:09.580Z,81.4
2023-02-19T09:04:12.745Z,81.2
2023-02-19T09:05:16.222Z,80.5
2023-02-19T09:06:19.612Z,81
2023-02-19T09:07:22.966Z,81.4
2023-02-19T09:08:25.790Z,81.3
2023-02-19T09:09:29.051Z,80.7
2023-02-19T09:10:32.548Z,78.8
2023-02-19T09:11:35.915Z,78
2023-02-19T09:12:38.791Z,78.7
2023-02-19T09:13:41.865Z,78.3
2023-02-19T09:14:45.123Z,77.9
2023-02-19T09:15:48.732Z,77.2
2023-02-19T09:16:52.252Z,77
2023-02-19T09:17:56.018Z,76.9
2023-02-19T09:18:59.358Z,76.6
2023-02-19T09:20:03.378Z,76.4
2023-02-19T09:21:06.767Z,76.3
2023-02-19T09:22:10.080Z,75.7
2023-02-19T09:23:12.796Z,74.1
2023-02-19T09:24:14.953Z,74.8
2023-02-19T09:25:17.969Z,74
2023-02-19T09:26:21.385Z,73.7
2023-02-19T09:27:24.776Z,73.9
2023-02-19T09:28:27.486Z,73
2023-02-19T09:29:30.796Z,72.7
2023-02-19T09:30:34.448Z,72.4
2023-02-19T09:31:39.015Z,71.2
2023-02-19T09:32:42.740Z,71.3
2023-02-19T09:33:45.894Z,70.3
2023-02-19T09:34:49.057Z,70.8
2023-02-19T09:35:52.530Z,70.2
2023-02-19T09:36:55.601Z,70
2023-02-19T09:37:58.322Z,70.6
2023-02-19T09:39:01.056Z,68.8
2023-02-19T09:40:04.752Z,66.3
2023-02-19T09:41:07.758Z,68
2023-02-19T09:42:11.376Z,68.9
2023-02-19T09:43:14.428Z,68.5
2023-02-19T09:44:17.126Z,66.7
2023-02-19T09:45:20.181Z,68.2
2023-02-19T09:46:24.230Z,69
2023-02-19T09:47:26.857Z,67.6
2023-02-19T09:48:30.580Z,66.9
2023-02-19T09:49:33.879Z,66.6
2023-02-19T09:50:36.696Z,65.2
2023-02-19T09:51:40.069Z,66.3
2023-02-19T09:52:43.793Z,64.5
2023-02-19T09:53:47.473Z,65.7
2023-02-19T09:54:49.902Z,66.4
2023-02-19T09:55:53.357Z,65.6
2023-02-19T09:56:57.958Z,66
2023-02-19T09:58:02.171Z,64.7
2023-02-19T09:59:04.685Z,64.8
2023-02-19T10:00:11.294Z,66.1
2023-02-19T10:01:15.383Z,66.4
2023-02-19T10:02:18.992Z,66.3
2023-02-19T10:03:22.486Z,64.8
2023-02-19T10:04:25.578Z,64.5
2023-02-19T10:05:29.217Z,63.8
2023-02-19T10:06:32.283Z,62.4
2023-02-19T10:07:35.474Z,62.2
2023-02-19T10:08:38.291Z,62.8
2023-02-19T10:09:41.285Z,62.6
2023-02-19T10:10:44.171Z,61.8
2023-02-19T10:11:47.241Z,62.2
2023-02-19T10:12:50.647Z,62.4
2023-02-19T10:13:53.103Z,63.7
2023-02-19T10:14:56.731Z,62.7
2023-02-19T10:15:59.499Z,61.5
2023-02-19T10:17:02.983Z,61.8
2023-02-19T10:18:06.413Z,62
2023-02-19T10:19:13.568Z,61.6
2023-02-19T10:20:16.950Z,59.2
2023-02-19T10:21:19.658Z,60.4
2023-02-19T10:22:22.828Z,59.5
2023-02-19T10:23:25.817Z,58.1
2023-02-19T10:24:29.284Z,58.9
2023-02-19T10:25:32.718Z,58.9
2023-02-19T10:26:35.963Z,58.9
2023-02-19T10:27:38.455Z,59.5
2023-02-19T10:28:42.473Z,59.8
2023-02-19T10:29:45.835Z,59.9
2023-02-19T10:30:48.710Z,58.8
2023-02-19T10:31:52.583Z,57.8
2023-02-19T10:32:56.116Z,58.3
2023-02-19T10:33:59.274Z,56.7
2023-02-19T10:35:02.725Z,57.9
2023-02-19T10:36:05.993Z,57.8
2023-02-19T10:37:08.806Z,56.1
2023-02-19T10:38:11.681Z,55.8
2023-02-19T10:39:14.775Z,55.2
2023-02-19T10:40:17.600Z,54.8
2023-02-19T10:41:20.362Z,55.1
2023-02-19T10:42:24.116Z,53.5
2023-02-19T10:43:27.169Z,54.1
2023-02-19T10:44:30.851Z,54.8
2023-02-19T10:45:34.010Z,55
2023-02-19T10:46:37.585Z,54.4
2023-02-19T10:47:41.039Z,54.5
2023-02-19T10:48:44.016Z,54.5
2023-02-19T10:49:47.463Z,54.3
2023-02-19T10:50:50.609Z,51.4
2023-02-19T10:51:53.862Z,53
2023-02-19T10:52:56.666Z,52.9
2023-02-19T10:53:59.812Z,52.6
2023-02-19T10:55:03.817Z,53.8
2023-02-19T10:56:06.600Z,53.8
2023-02-19T10:57:09.793Z,54.9
2023-02-19T10:58:13.139Z,54.2
2023-02-19T10:59:15.819Z,52.8
2023-02-19T11:00:19.123Z,53.1
2023-02-19T11:01:22.257Z,53.4
2023-02-19T11:02:26.145Z,53.6
2023-02-19T11:03:29.245Z,52.8
2023-02-19T11:04:32.897Z,52.2
2023-02-19T11:05:36.663Z,53.1
2023-02-19T11:06:39.391Z,54.5
2023-02-19T11:07:42.347Z,54.7
2023-02-19T11:08:45.592Z,54.8
2023-02-19T11:09:48.304Z,54.4
2023-02-19T11:10:51.671Z,51.7
2023-02-19T11:11:54.477Z,52.2
2023-02-19T11:12:57.570Z,51.9
2023-02-19T11:14:00.971Z,52.5
2023-02-19T11:15:03.139Z,53.6
2023-02-19T11:16:06.744Z,53.6
2023-02-19T11:17:09.506Z,53.3
2023-02-19T11:18:13.143Z,53.9
2023-02-19T11:19:16.205Z,54.3
2023-02-19T11:20:19.709Z,52.7
2023-02-19T11:21:22.701Z,55
2023-02-19T11:22:26.117Z,56
2023-02-19T11:23:29.551Z,54
2023-02-19T11:24:32.705Z,53.9
2023-02-19T11:25:35.778Z,55.2
2023-02-19T11:26:38.803Z,55.5
2023-02-19T11:27:41.798Z,54.3
2023-02-19T11:28:44.304Z,53
2023-02-19T11:29:47.993Z,53.8
2023-02-19T11:30:51.046Z,53.5
2023-02-19T11:31:54.599Z,52.3
2023-02-19T11:32:58.182Z,51.7
2023-02-19T11:34:01.882Z,51.9
2023-02-19T11:35:05.221Z,49.9
2023-02-19T11:36:08.862Z,50
2023-02-19T11:37:11.656Z,50.5
2023-02-19T11:38:14.752Z,48.5
2023-02-19T11:39:18.201Z,48.6
2023-02-19T11:40:21.253Z,48.7
2023-02-19T11:41:24.751Z,48.9
2023-02-19T11:42:30.733Z,49
2023-02-19T11:43:33.998Z,48.8
2023-02-19T11:44:36.994Z,49
2023-02-19T11:45:40.370Z,48.8
2023-02-19T11:46:43.738Z,46.8
2023-02-19T11:47:46.706Z,46.5
2023-02-19T11:48:49.206Z,46.2
2023-02-19T11:49:51.929Z,45.9
2023-02-19T11:50:55.280Z,45.5
2023-02-19T11:51:57.983Z,45.2
2023-02-19T11:53:01.037Z,44.7
2023-02-19T11:54:04.022Z,45.4
2023-02-19T11:55:06.449Z,45.6
2023-02-19T11:56:09.233Z,45.8
2023-02-19T11:57:12.415Z,46.4
2023-02-19T11:58:15.271Z,46.5
2023-02-19T11:59:19.074Z,44.9
2023-02-19T12:00:21.777Z,45.4
2023-02-19T12:01:25.227Z,46
2023-02-19T12:02:28.121Z,45.9
2023-02-19T12:03:31.715Z,45.6
2023-02-19T12:04:38.869Z,46.3
2023-02-19T12:05:41.841Z,46.2
2023-02-19T12:06:45.126Z,46.1
2023-02-19T12:07:47.904Z,46
2023-02-19T12:08:51.261Z,46.8
2023-02-19T12:09:54.604Z,45.6
2023-02-19T12:10:57.940Z,45.4
2023-02-19T12:12:00.987Z,44.2
2023-02-19T12:13:03.763Z,44.4
2023-02-19T12:14:07.022Z,43.9
2023-02-19T12:15:10.082Z,43.2
2023-02-19T12:16:13.551Z,43.6
2023-02-19T12:17:17.382Z,44.7
2023-02-19T12:18:21.114Z,44.2
2023-02-19T12:19:24.255Z,43.1
2023-02-19T12:20:27.047Z,43.4
2023-02-19T12:21:30.502Z,44.1
2023-02-19T12:22:33.785Z,44.7
2023-02-19T12:23:37.395Z,44.4
2023-02-19T12:24:40.495Z,44.2
2023-02-19T12:25:43.916Z,43.7
2023-02-19T12:26:46.377Z,43.9
2023-02-19T12:27:50.165Z,43.5
2023-02-19T12:28:53.019Z,44
2023-02-19T12:29:56.459Z,43.4
2023-02-19T12:30:59.945Z,46.2
2023-02-19T12:32:04.052Z,48.7
2023-02-19T12:33:07.517Z,47.5
2023-02-19T12:34:10.480Z,45.5
2023-02-19T12:35:13.569Z,43.7
2023-02-19T12:36:16.658Z,47.7
2023-02-19T12:37:19.993Z,44.1
2023-02-19T12:38:23.091Z,46
2023-02-19T12:39:26.458Z,47
2023-02-19T12:40:29.443Z,43.2
2023-02-19T12:41:32.804Z,41.4
2023-02-19T12:42:35.589Z,47.7
2023-02-19T12:43:38.849Z,43.4
2023-02-19T12:44:42.277Z,45.1
2023-02-19T12:45:45.572Z,45.1
2023-02-19T12:46:49.025Z,45.5
2023-02-19T12:47:52.083Z,45.1
2023-02-19T12:48:55.342Z,45
2023-02-19T12:49:58.204Z,48.6
2023-02-19T12:51:01.813Z,44.4
2023-02-19T12:52:05.458Z,46
2023-02-19T12:53:08.819Z,47.6
2023-02-19T12:54:11.791Z,44
2023-02-19T12:55:14.744Z,43.1
2023-02-19T12:56:18.440Z,45.2
2023-02-19T12:57:21.949Z,43.9
2023-02-19T12:58:25.144Z,44
2023-02-19T12:59:28.777Z,42.2
2023-02-19T13:00:32.213Z,44.5
2023-02-19T13:01:35.859Z,42.5
2023-02-19T13:02:39.380Z,42.7
2023-02-19T13:03:42.114Z,41.8
2023-02-19T13:04:45.441Z,41.3
2023-02-19T13:05:48.511Z,44.9
2023-02-19T13:06:50.999Z,42.9
2023-02-19T13:07:53.515Z,43.8
2023-02-19T13:09:07.804Z,42.4
2023-02-19T13:10:11.766Z,44.1
2023-02-19T13:11:16.197Z,41.4
2023-02-19T13:12:20.014Z,40.4
2023-02-19T13:13:25.881Z,38.9
2023-02-19T13:14:29.378Z,38.2
2023-02-19T13:15:32.180Z,38.9
2023-02-19T13:16:35.665Z,38.9
2023-02-19T13:17:38.703Z,38.7
2023-02-19T13:18:42.055Z,39
2023-02-19T13:19:45.391Z,39.1
2023-02-19T13:20:48.370Z,40.1
2023-02-19T13:21:50.797Z,39.7
2023-02-19T13:22:53.869Z,39.5
2023-02-19T13:23:57.471Z,39.8
2023-02-19T13:25:00.633Z,39.7
2023-02-19T13:26:03.690Z,39.8
2023-02-19T13:27:07.365Z,39.9
2023-02-19T13:28:10.503Z,39.6
2023-02-19T13:29:13.771Z,39.7
2023-02-19T13:30:17.369Z,40.8
2023-02-19T13:31:21.356Z,40.4
2023-02-19T13:32:25.457Z,40.3
2023-02-19T13:33:28.895Z,39.4
2023-02-19T13:34:32.902Z,39.5
2023-02-19T13:35:36.074Z,37.5
2023-02-19T13:36:39.046Z,37.6
2023-02-19T13:37:42.132Z,37.3
2023-02-19T13:38:44.864Z,37.4
2023-02-19T13:39:48.478Z,37.2
2023-02-19T13:40:51.734Z,37.2
2023-02-19T13:41:54.786Z,37.1
2023-02-19T13:42:57.789Z,36.9
2023-02-19T13:44:00.751Z,36.6
2023-02-19T13:45:04.148Z,36.5
2023-02-19T13:46:08.062Z,37.4
2023-02-19T13:47:11.773Z,37.3
2023-02-19T13:48:15.041Z,37.9
2023-02-19T13:49:18.088Z,38.2
2023-02-19T13:50:21.510Z,37.4
2023-02-19T13:51:24.034Z,37.8
2023-02-19T13:52:27.420Z,37.6
2023-02-19T13:53:30.519Z,37.3
2023-02-19T13:54:34.529Z,37.4
2023-02-19T13:55:37.587Z,37.2
2023-02-19T13:56:44.425Z,36.9
2023-02-19T13:57:47.199Z,37.3
2023-02-19T13:58:50.859Z,37.1
2023-02-19T13:59:54.311Z,37.6
2023-02-19T14:00:57.761Z,37.6
2023-02-19T14:02:01.394Z,37.2
2023-02-19T14:03:05.025Z,37
2023-02-19T14:04:08.396Z,37
2023-02-19T14:05:11.817Z,36.7
2023-02-19T14:06:15.169Z,36.6
2023-02-19T14:07:18.376Z,36.8
2023-02-19T14:08:20.957Z,36.9